Time;durP1;ratioP1;P1;durP2;ratioP2;P2;SDS_P1;SDS_P2;PMS_P1;PMS_P2;Temp;Humidity;BMP_temperature;BMP_pressure;BME280_temperature;BME280_humidity;BME280_pressure;Samples;Min_cycle;Max_cycle;Signal;HPM_P1;HPM_P2
2023/04/13 00:02:09;;;;;;;3.30;0.63;;;6.90;99.90;;;;;;5111471;28;20703;-75
2023/04/13 00:04:38;;;;;;;4.07;0.93;;;6.80;99.90;;;;;;5111726;28;20664;-75
2023/04/13 00:07:04;;;;;;;6.83;1.70;;;6.70;99.90;;;;;;5111561;28;20290;-75
2023/04/13 00:09:32;;;;;;;2.07;0.70;;;6.90;99.90;;;;;;5110770;28;20232;-75
2023/04/13 00:12:00;;;;;;;1.90;0.70;;;7.00;99.90;;;;;;5110985;28;20204;-75
2023/04/13 00:14:32;;;;;;;1.40;1.17;;;7.00;99.90;;;;;;5111617;28;20200;-75
2023/04/13 00:16:59;;;;;;;2.47;0.80;;;7.10;99.90;;;;;;5111098;28;20204;-82
2023/04/13 00:19:27;;;;;;;3.03;0.90;;;7.10;99.90;;;;;;5111472;28;20676;-75
2023/04/13 00:21:55;;;;;;;4.83;1.27;;;7.10;99.90;;;;;;5111826;28;20654;-74
2023/04/13 00:24:22;;;;;;;2.30;0.70;;;7.20;99.90;;;;;;5111744;28;20236;-74
2023/04/13 00:26:50;;;;;;;2.50;1.27;;;7.20;99.90;;;;;;5111672;28;20201;-74
2023/04/13 00:29:17;;;;;;;3.43;1.03;;;7.10;99.90;;;;;;5110943;28;20200;-74
2023/04/13 00:31:44;;;;;;;9.13;1.10;;;7.30;99.90;;;;;;5111556;28;20232;-74
2023/04/13 00:34:11;;;;;;;2.47;1.07;;;7.10;99.90;;;;;;5110966;28;20657;-74
2023/04/13 00:36:38;;;;;;;2.53;1.50;;;7.00;99.90;;;;;;5111371;28;20228;-78
2023/04/13 00:39:07;;;;;;;2.37;1.27;;;7.10;99.90;;;;;;5111222;28;20197;-74
2023/04/13 00:41:33;;;;;;;2.33;1.10;;;7.30;99.90;;;;;;5111107;28;20786;-74
2023/04/13 00:44:01;;;;;;;5.90;1.63;;;7.50;99.90;;;;;;5110810;28;20240;-74
2023/04/13 00:46:28;;;;;;;7.47;1.70;;;7.40;99.90;;;;;;5111441;28;20206;-75
2023/04/13 00:48:57;;;;;;;4.53;0.90;;;7.30;99.90;;;;;;5111380;28;20609;-76
2023/04/13 00:51:23;;;;;;;3.90;1.77;;;7.40;99.90;;;;;;5111535;28;20697;-77
2023/04/13 00:53:51;;;;;;;3.10;1.20;;;7.50;99.90;;;;;;5111299;28;20258;-77
2023/04/13 00:56:21;;;;;;;5.57;1.57;;;7.40;99.90;;;;;;5111234;28;20203;-78
2023/04/13 00:58:48;;;;;;;3.47;1.17;;;7.50;99.90;;;;;;5111174;28;20204;-76
2023/04/13 01:01:17;;;;;;;1.83;1.20;;;7.60;99.90;;;;;;5111254;28;20260;-76
2023/04/13 01:03:45;;;;;;;4.00;1.50;;;7.60;99.90;;;;;;5111168;28;20212;-76
2023/04/13 01:06:17;;;;;;;3.87;1.40;;;7.70;99.90;;;;;;5110607;28;20232;-76
2023/04/13 01:08:49;;;;;;;2.00;1.30;;;7.80;99.90;;;;;;5111285;28;20212;-75
2023/04/13 01:11:25;;;;;;;3.67;1.60;;;7.70;99.90;;;;;;5110598;28;20251;-75
2023/04/13 01:13:59;;;;;;;4.20;1.50;;;7.70;99.90;;;;;;5111332;28;20244;-76
2023/04/13 01:16:30;;;;;;;3.17;2.50;;;7.70;99.90;;;;;;5110967;28;20205;-75
2023/04/13 01:18:57;;;;;;;2.10;1.13;;;7.50;99.90;;;;;;5110694;28;20205;-75
2023/04/13 01:21:29;;;;;;;2.70;1.83;;;7.60;99.90;;;;;;5113549;28;20259;-76
2023/04/13 01:24:09;;;;;;;8.13;2.10;;;7.60;99.90;;;;;;5115011;28;20228;-76
2023/04/13 01:26:49;;;;;;;3.40;1.00;;;7.50;99.90;;;;;;5114790;28;20243;-76
2023/04/13 01:29:19;;;;;;;8.27;1.60;;;7.50;99.90;;;;;;5114537;28;20670;-76
2023/04/13 01:31:47;;;;;;;5.00;1.97;;;7.50;99.90;;;;;;5114824;28;20238;-74
2023/04/13 01:34:14;;;;;;;2.50;1.40;;;7.50;99.90;;;;;;5114368;28;20279;-74
2023/04/13 01:36:42;;;;;;;8.50;3.13;;;7.50;99.90;;;;;;5114839;28;20239;-76
2023/04/13 01:39:09;;;;;;;2.77;1.40;;;7.50;99.90;;;;;;5114320;28;20205;-76
2023/04/13 01:41:37;;;;;;;7.67;1.80;;;7.30;99.90;;;;;;5114138;28;20263;-77
2023/04/13 01:44:04;;;;;;;4.70;1.47;;;7.40;99.90;;;;;;5114442;28;20204;-77
2023/04/13 01:46:34;;;;;;;5.40;1.60;;;7.30;99.90;;;;;;5114693;28;21169;-75
2023/04/13 01:49:03;;;;;;;2.57;1.10;;;7.30;99.90;;;;;;5114367;28;20201;-75
2023/04/13 01:51:34;;;;;;;3.43;2.37;;;7.30;99.90;;;;;;5114518;28;20299;-75
2023/04/13 01:54:06;;;;;;;1.00;0.80;;;7.30;99.90;;;;;;5113903;28;20204;-76
2023/04/13 01:56:34;;;;;;;3.20;1.20;;;7.30;99.90;;;;;;5113922;28;20205;-75
2023/04/13 01:59:01;;;;;;;4.03;1.80;;;7.20;99.90;;;;;;5114181;28;20544;-75
2023/04/13 02:01:28;;;;;;;1.17;0.90;;;7.10;99.90;;;;;;5114283;28;20264;-74
2023/04/13 02:03:57;;;;;;;4.33;1.57;;;7.00;99.90;;;;;;5114461;28;20232;-74
2023/04/13 02:06:24;;;;;;;4.47;1.30;;;7.00;99.90;;;;;;5114267;28;20703;-75
2023/04/13 02:08:52;;;;;;;4.97;1.00;;;6.90;99.90;;;;;;5114783;28;20246;-76
2023/04/13 02:11:19;;;;;;;3.07;1.10;;;6.90;99.90;;;;;;5113376;28;20205;-74
2023/04/13 02:13:46;;;;;;;2.47;1.03;;;6.90;99.90;;;;;;5114022;28;20703;-74
2023/04/13 02:16:13;;;;;;;3.93;1.30;;;6.90;99.90;;;;;;5113559;28;20242;-73
2023/04/13 02:18:40;;;;;;;8.03;2.23;;;6.90;99.90;;;;;;5113926;28;20617;-74
2023/04/13 02:21:10;;;;;;;4.17;1.10;;;6.80;99.90;;;;;;5113437;28;20236;-73
2023/04/13 02:23:38;;;;;;;3.53;0.90;;;7.00;99.90;;;;;;5114209;28;20242;-74
2023/04/13 02:26:08;;;;;;;2.47;1.13;;;6.90;99.90;;;;;;5113265;28;20200;-73
2023/04/13 02:28:35;;;;;;;2.53;1.47;;;6.90;99.90;;;;;;5113677;28;20233;-73
2023/04/13 02:31:02;;;;;;;1.70;1.00;;;6.90;99.90;;;;;;5113305;28;20243;-74
2023/04/13 02:33:30;;;;;;;7.17;1.37;;;6.90;99.90;;;;;;5112496;28;20205;-73
2023/04/13 02:35:57;;;;;;;3.70;1.23;;;6.90;99.90;;;;;;5113152;28;20721;-75
2023/04/13 02:38:27;;;;;;;3.10;1.30;;;6.90;99.90;;;;;;5113770;28;20258;-73
2023/04/13 02:40:55;;;;;;;2.73;1.17;;;6.80;99.90;;;;;;5113497;28;20803;-72
2023/04/13 02:43:22;;;;;;;2.50;1.00;;;6.70;99.90;;;;;;5113680;28;20671;-73
2023/04/13 02:45:49;;;;;;;4.53;1.13;;;6.90;99.90;;;;;;5113401;28;20197;-74
2023/04/13 02:48:16;;;;;;;4.97;1.57;;;7.00;99.90;;;;;;5113434;28;20240;-79
2023/04/13 02:50:43;;;;;;;6.73;1.70;;;6.80;99.90;;;;;;5113298;28;20208;-78
2023/04/13 02:53:09;;;;;;;4.23;1.20;;;6.70;99.90;;;;;;5112965;28;20232;-76
2023/04/13 02:55:38;;;;;;;4.10;1.77;;;6.60;99.90;;;;;;5113270;28;20201;-76
2023/04/13 02:58:06;;;;;;;6.37;1.20;;;6.50;99.90;;;;;;5112805;28;20672;-76
2023/04/13 03:00:33;;;;;;;1.90;1.80;;;6.40;99.90;;;;;;5113007;28;20636;-76
2023/04/13 03:03:02;;;;;;;5.43;1.40;;;6.40;99.90;;;;;;5112866;28;20258;-76
2023/04/13 03:05:30;;;;;;;4.90;1.20;;;6.50;99.90;;;;;;5113114;28;20205;-76
2023/04/13 03:07:58;;;;;;;1.63;1.10;;;6.50;99.90;;;;;;5112588;28;20675;-76
2023/04/13 03:10:25;;;;;;;1.97;0.80;;;6.40;99.90;;;;;;5113086;28;20217;-75
2023/04/13 03:12:53;;;;;;;3.50;2.73;;;6.50;99.90;;;;;;5113395;28;20212;-75
2023/04/13 03:15:21;;;;;;;5.03;0.97;;;6.40;99.90;;;;;;5112707;28;20205;-75
2023/04/13 03:17:48;;;;;;;3.60;1.00;;;6.50;99.90;;;;;;5110939;27;20231;-80
2023/04/13 03:20:15;;;;;;;1.77;1.00;;;6.50;99.90;;;;;;5112177;28;20684;-78
2023/04/13 03:22:43;;;;;;;3.70;1.03;;;6.70;99.90;;;;;;5112433;28;20659;-76
2023/04/13 03:25:11;;;;;;;1.97;0.73;;;6.60;99.90;;;;;;5112425;28;20201;-76
2023/04/13 03:27:38;;;;;;;3.53;1.43;;;6.90;99.90;;;;;;5112589;28;20200;-77
2023/04/13 03:30:08;;;;;;;2.00;1.07;;;6.90;99.90;;;;;;5110945;28;20264;-78
2023/04/13 03:32:35;;;;;;;6.30;1.70;;;7.00;99.90;;;;;;5091983;28;20229;-77
2023/04/13 03:35:02;;;;;;;3.83;1.20;;;7.10;99.90;;;;;;5111519;28;20296;-76
2023/04/13 03:37:31;;;;;;;2.40;1.07;;;7.00;99.90;;;;;;5110506;27;20201;-83
2023/04/13 03:39:58;;;;;;;6.63;2.73;;;7.00;99.90;;;;;;5111815;28;20253;-76
2023/04/13 03:42:25;;;;;;;1.53;1.10;;;6.80;99.90;;;;;;5110356;28;20264;-76
2023/04/13 03:44:52;;;;;;;7.40;2.10;;;6.90;99.90;;;;;;5112055;28;20236;-77
2023/04/13 03:47:21;;;;;;;10.17;1.87;;;7.00;99.90;;;;;;5111906;28;20583;-76
2023/04/13 03:49:48;;;;;;;2.83;1.30;;;7.00;99.90;;;;;;5112227;28;20214;-76
2023/04/13 03:52:15;;;;;;;2.40;1.27;;;6.90;99.90;;;;;;5111995;28;20209;-76
2023/04/13 03:54:42;;;;;;;3.73;1.03;;;6.90;99.90;;;;;;5112093;28;20288;-77
2023/04/13 03:57:08;;;;;;;2.67;1.00;;;7.00;99.90;;;;;;5111690;28;20672;-76
2023/04/13 03:59:35;;;;;;;1.30;1.20;;;7.10;99.90;;;;;;5112044;28;20677;-77
2023/04/13 04:02:02;;;;;;;2.53;1.83;;;7.10;99.90;;;;;;5111792;28;20229;-76
2023/04/13 04:04:31;;;;;;;6.20;1.63;;;7.10;99.90;;;;;;5111056;28;20664;-77
2023/04/13 04:06:58;;;;;;;3.67;1.07;;;7.10;99.90;;;;;;5111517;28;20236;-77
2023/04/13 04:09:25;;;;;;;3.17;1.87;;;7.20;99.90;;;;;;5110234;28;20216;-76
2023/04/13 04:11:52;;;;;;;3.20;0.80;;;7.10;99.90;;;;;;5111484;28;20228;-81
2023/04/13 04:14:19;;;;;;;1.10;0.80;;;7.00;99.90;;;;;;5111299;28;20559;-77
2023/04/13 04:16:46;;;;;;;2.80;1.00;;;7.00;99.90;;;;;;5111796;28;20240;-76
2023/04/13 04:19:13;;;;;;;2.83;0.93;;;6.90;99.90;;;;;;5109805;28;20258;-77
2023/04/13 04:21:45;;;;;;;3.27;0.80;;;6.90;99.90;;;;;;5111140;28;20267;-76
2023/04/13 04:24:19;;;;;;;4.93;0.90;;;7.00;99.90;;;;;;5111139;28;20205;-77
2023/04/13 04:26:49;;;;;;;1.47;1.33;;;7.00;99.90;;;;;;5111563;28;20304;-77
2023/04/13 04:29:16;;;;;;;4.33;0.93;;;6.90;99.90;;;;;;5111200;28;20213;-77
2023/04/13 04:31:43;;;;;;;2.00;1.10;;;6.90;99.90;;;;;;5111569;28;20216;-77
2023/04/13 04:34:10;;;;;;;2.27;1.97;;;7.00;99.90;;;;;;5111030;28;20201;-77
2023/04/13 04:36:40;;;;;;;2.67;0.90;;;7.00;99.90;;;;;;5111070;28;20201;-77
2023/04/13 04:39:08;;;;;;;1.33;0.70;;;7.10;99.90;;;;;;5111255;28;20229;-78
2023/04/13 04:41:38;;;;;;;2.53;0.93;;;7.10;99.90;;;;;;5111475;28;20228;-78
2023/04/13 04:44:06;;;;;;;3.23;0.80;;;7.10;99.90;;;;;;5111116;28;20209;-78
2023/04/13 04:46:36;;;;;;;3.37;1.10;;;7.00;99.90;;;;;;5111457;28;20205;-78
2023/04/13 04:49:03;;;;;;;2.83;0.87;;;7.10;99.90;;;;;;5109753;28;20212;-77
2023/04/13 04:51:30;;;;;;;2.03;0.73;;;7.10;99.90;;;;;;5111422;28;20230;-78
2023/04/13 04:54:00;;;;;;;2.90;1.00;;;7.20;99.90;;;;;;5111188;28;20231;-80
2023/04/13 04:56:28;;;;;;;1.80;1.30;;;7.10;99.90;;;;;;5113935;28;20211;-78
2023/04/13 04:58:55;;;;;;;3.37;2.17;;;7.10;99.90;;;;;;5114163;28;20211;-79
2023/04/13 05:01:25;;;;;;;1.80;1.00;;;7.20;99.90;;;;;;5115432;28;20224;-79
2023/04/13 05:03:52;;;;;;;1.07;0.80;;;7.20;99.90;;;;;;5115741;28;20200;-78
2023/04/13 05:06:19;;;;;;;1.50;0.87;;;7.10;99.90;;;;;;5114807;28;20204;-79
2023/04/13 05:08:46;;;;;;;6.07;0.93;;;7.20;99.90;;;;;;5114992;28;20207;-79
2023/04/13 05:11:13;;;;;;;1.80;0.90;;;7.10;99.90;;;;;;5115206;28;20255;-80
2023/04/13 05:13:41;;;;;;;2.23;1.07;;;7.20;99.90;;;;;;5114747;28;20242;-80
2023/04/13 05:16:09;;;;;;;2.17;1.50;;;7.20;99.90;;;;;;5115204;28;20205;-80
2023/04/13 05:18:44;;;;;;;0.63;0.50;;;7.10;99.90;;;;;;5114643;28;20205;-80
2023/04/13 05:21:12;;;;;;;1.87;0.70;;;7.30;99.90;;;;;;5114877;28;20601;-82
2023/04/13 05:23:39;;;;;;;2.70;1.00;;;7.20;99.90;;;;;;5114847;28;20207;-80
2023/04/13 05:26:07;;;;;;;2.57;0.80;;;7.20;99.90;;;;;;5115135;28;20278;-79
2023/04/13 05:28:34;;;;;;;8.00;1.00;;;7.10;99.90;;;;;;5114120;28;20200;-81
2023/04/13 05:31:03;;;;;;;4.07;0.97;;;7.10;99.90;;;;;;5115053;28;20644;-81
2023/04/13 05:33:30;;;;;;;4.20;0.77;;;7.10;99.90;;;;;;5114622;28;20653;-82
2023/04/13 05:35:57;;;;;;;2.00;1.10;;;7.20;99.90;;;;;;5114831;28;20228;-82
2023/04/13 05:38:24;;;;;;;0.97;0.60;;;7.20;99.90;;;;;;5115145;28;20231;-82
2023/04/13 05:40:51;;;;;;;1.47;0.80;;;7.30;99.90;;;;;;5115055;28;20292;-82
2023/04/13 05:43:19;;;;;;;3.27;1.10;;;7.30;99.90;;;;;;5114574;28;20286;-77
2023/04/13 05:45:45;;;;;;;1.37;0.87;;;7.30;99.90;;;;;;5114263;28;20240;-80
2023/04/13 05:48:14;;;;;;;1.60;1.07;;;7.30;99.90;;;;;;5114732;28;20197;-79
2023/04/13 05:50:42;;;;;;;1.80;0.90;;;7.30;99.90;;;;;;5114440;28;20292;-81
2023/04/13 05:53:09;;;;;;;1.53;1.43;;;7.40;99.90;;;;;;5114499;28;20261;-79
2023/04/13 05:55:36;;;;;;;3.97;1.30;;;7.40;99.90;;;;;;5113532;28;20676;-79
2023/04/13 05:58:03;;;;;;;1.70;0.90;;;7.40;99.90;;;;;;5114640;28;20201;-80
2023/04/13 06:00:31;;;;;;;2.87;1.23;;;7.40;99.90;;;;;;5114176;28;20209;-78
2023/04/13 06:03:00;;;;;;;3.10;1.00;;;7.40;99.90;;;;;;5114229;28;20229;-80
2023/04/13 06:05:28;;;;;;;1.13;0.70;;;7.50;99.90;;;;;;5113799;28;20560;-78
2023/04/13 06:07:55;;;;;;;4.60;0.80;;;7.50;99.90;;;;;;5114069;28;20205;-79
2023/04/13 06:10:22;;;;;;;1.23;1.13;;;7.40;99.90;;;;;;5114186;28;20244;-77
2023/04/13 06:12:51;;;;;;;4.10;0.67;;;7.50;99.90;;;;;;5113686;28;20582;-77
2023/04/13 06:15:19;;;;;;;1.20;0.90;;;7.40;99.90;;;;;;5114192;28;20205;-77
2023/04/13 06:17:46;;;;;;;1.83;0.70;;;7.30;99.90;;;;;;5113400;28;20281;-78
2023/04/13 06:20:14;;;;;;;1.50;0.57;;;7.20;99.90;;;;;;5111696;28;20200;-81
2023/04/13 06:22:42;;;;;;;5.13;0.83;;;7.40;99.90;;;;;;5113049;28;20236;-75
2023/04/13 06:25:10;;;;;;;0.90;0.67;;;7.50;99.90;;;;;;5112974;28;20251;-78
2023/04/13 06:27:37;;;;;;;1.57;0.80;;;7.40;99.90;;;;;;5113545;28;20245;-77
2023/04/13 06:30:05;;;;;;;1.07;0.60;;;7.50;99.90;;;;;;5113882;28;20232;-78
2023/04/13 06:32:32;;;;;;;1.57;0.60;;;7.60;99.90;;;;;;5113431;28;20653;-82
2023/04/13 06:34:59;;;;;;;0.93;0.80;;;7.60;99.90;;;;;;5113577;28;20237;-77
2023/04/13 06:37:27;;;;;;;0.73;0.70;;;7.40;99.90;;;;;;5113408;28;20201;-77
2023/04/13 06:39:56;;;;;;;1.27;0.53;;;7.30;99.90;;;;;;5113546;28;20205;-76
2023/04/13 06:42:23;;;;;;;0.67;0.50;;;7.30;99.90;;;;;;5113399;27;20281;-76
2023/04/13 06:44:50;;;;;;;3.40;0.73;;;7.30;99.90;;;;;;5113852;28;20197;-77
2023/04/13 06:47:17;;;;;;;1.37;0.60;;;7.40;99.90;;;;;;5113449;28;20741;-77
2023/04/13 06:49:44;;;;;;;1.97;0.60;;;7.50;99.90;;;;;;5111359;27;20234;-77
2023/04/13 06:52:11;;;;;;;1.27;0.77;;;7.60;99.90;;;;;;5114148;27;20208;-78
2023/04/13 06:54:38;;;;;;;1.60;0.50;;;7.60;99.90;;;;;;5112156;28;20205;-76
2023/04/13 06:57:06;;;;;;;0.77;0.60;;;7.70;99.90;;;;;;5112227;27;20299;-81
2023/04/13 06:59:33;;;;;;;2.60;0.70;;;7.80;99.90;;;;;;5111917;28;20234;-75
2023/04/13 07:02:00;;;;;;;2.23;0.60;;;7.90;99.90;;;;;;5111663;27;20252;-76
2023/04/13 07:04:27;;;;;;;1.53;1.07;;;8.00;99.90;;;;;;5112294;28;20243;-78
2023/04/13 07:06:54;;;;;;;1.40;0.83;;;8.20;99.90;;;;;;5113024;28;20671;-76
2023/04/13 07:09:21;;;;;;;0.73;0.57;;;8.40;99.90;;;;;;5121893;27;20201;-81
2023/04/13 07:11:48;;;;;;;0.97;0.60;;;8.50;99.90;;;;;;5112639;28;20224;-77
2023/04/13 07:14:16;;;;;;;5.73;1.03;;;8.70;99.90;;;;;;5112951;28;20770;-78
2023/04/13 07:16:43;;;;;;;0.70;0.50;;;9.10;99.90;;;;;;5112234;28;20240;-77
2023/04/13 07:19:10;;;;;;;2.27;0.70;;;9.40;99.90;;;;;;5112456;28;20247;-76
2023/04/13 07:21:37;;;;;;;2.23;0.70;;;9.60;99.90;;;;;;5112297;28;20244;-77
2023/04/13 07:24:04;;;;;;;0.93;0.90;;;9.60;99.90;;;;;;5112931;28;20236;-78
2023/04/13 07:26:31;;;;;;;1.63;0.73;;;9.50;99.90;;;;;;5127744;27;20251;-79
2023/04/13 07:28:58;;;;;;;1.27;0.70;;;9.20;99.90;;;;;;5133119;27;20671;-74
2023/04/13 07:31:26;;;;;;;0.57;0.50;;;8.90;99.90;;;;;;5133035;27;20200;-76
2023/04/13 07:33:53;;;;;;;3.80;0.80;;;8.90;99.90;;;;;;5133563;27;20200;-77
2023/04/13 07:36:20;;;;;;;0.50;0.50;;;8.80;99.90;;;;;;5133551;27;20207;-77
2023/04/13 07:38:47;;;;;;;3.37;0.77;;;8.80;99.90;;;;;;5132600;27;20243;-77
2023/04/13 07:41:14;;;;;;;2.07;0.50;;;9.00;99.90;;;;;;5132729;27;20286;-75
2023/04/13 07:43:41;;;;;;;1.70;0.70;;;9.20;99.90;;;;;;5109712;27;20236;-80
2023/04/13 07:46:12;;;;;;;0.60;0.50;;;9.30;99.90;;;;;;5111862;28;20696;-74
2023/04/13 07:48:41;;;;;;;3.20;0.80;;;9.60;99.90;;;;;;5111468;28;20664;-74
2023/04/13 07:51:16;;;;;;;0.70;0.70;;;9.70;99.90;;;;;;5112206;28;20228;-76
2023/04/13 07:53:43;;;;;;;1.30;0.67;;;9.70;99.90;;;;;;5111239;28;20253;-73
2023/04/13 07:56:10;;;;;;;1.53;1.43;;;9.40;99.90;;;;;;5129284;27;20232;-76
2023/04/13 07:58:37;;;;;;;2.03;0.93;;;9.60;99.90;;;;;;5132249;27;20200;-76
2023/04/13 08:01:04;;;;;;;2.77;0.73;;;9.80;99.90;;;;;;5113851;27;20225;-76
2023/04/13 08:03:31;;;;;;;1.83;0.87;;;9.90;99.90;;;;;;5111517;28;20268;-73
2023/04/13 08:06:00;;;;;;;3.00;0.97;;;9.70;99.90;;;;;;5110962;28;20201;-75
2023/04/13 08:08:28;;;;;;;3.57;0.80;;;9.60;99.90;;;;;;5111408;28;20563;-74
2023/04/13 08:10:55;;;;;;;2.43;0.63;;;9.40;99.90;;;;;;5111166;28;20212;-74
2023/04/13 08:13:23;;;;;;;1.73;0.43;;;9.60;99.90;;;;;;5110126;27;20201;-75
2023/04/13 08:15:50;;;;;;;2.50;1.47;;;9.80;99.90;;;;;;5112067;28;20201;-75
2023/04/13 08:18:17;;;;;;;0.90;0.70;;;10.30;99.90;;;;;;5111423;28;20228;-74
2023/04/13 08:20:44;;;;;;;1.77;1.00;;;10.50;99.90;;;;;;5111093;28;20224;-75
2023/04/13 08:23:13;;;;;;;0.43;0.40;;;10.90;99.90;;;;;;5111512;28;20250;-75
2023/04/13 08:25:41;;;;;;;1.43;0.40;;;11.00;99.90;;;;;;5108788;28;20693;-74
2023/04/13 08:28:08;;;;;;;1.63;0.40;;;10.90;99.90;;;;;;5111150;28;20249;-75
2023/04/13 08:30:36;;;;;;;6.57;1.70;;;10.50;99.90;;;;;;5109781;28;20676;-73
2023/04/13 08:33:03;;;;;;;2.33;1.10;;;10.60;99.90;;;;;;5110872;28;20240;-75
2023/04/13 08:35:30;;;;;;;3.47;0.80;;;11.40;99.90;;;;;;5110588;28;20228;-80
2023/04/13 08:37:57;;;;;;;1.23;0.73;;;11.70;99.90;;;;;;5111360;28;20292;-76
2023/04/13 08:40:27;;;;;;;2.20;1.23;;;11.50;99.90;;;;;;5111678;28;20200;-75
2023/04/13 08:42:55;;;;;;;1.43;0.70;;;11.60;99.90;;;;;;5111463;28;20267;-79
2023/04/13 08:45:22;;;;;;;0.40;0.40;;;11.70;99.90;;;;;;5111776;28;20215;-78
2023/04/13 08:47:50;;;;;;;1.17;0.55;;;12.10;99.90;;;;;;5110983;28;20262;-76
2023/04/13 08:50:18;;;;;;;2.40;0.73;;;11.90;99.90;;;;;;5110907;28;20208;-77
2023/04/13 08:52:44;;;;;;;2.65;0.55;;;11.10;99.90;;;;;;5109644;28;20213;-79
2023/04/13 08:55:11;;;;;;;5.30;1.00;;;10.60;99.90;;;;;;5109872;28;20208;-77
2023/04/13 08:57:41;;;;;;;1.88;0.80;;;10.40;99.90;;;;;;5110881;28;20244;-80
2023/04/13 09:00:14;;;;;;;0.93;0.50;;;10.40;99.90;;;;;;5111592;28;20647;-79
2023/04/13 09:02:46;;;;;;;4.00;1.60;;;10.30;99.90;;;;;;5093770;28;20224;-77
2023/04/13 09:05:15;;;;;;;1.63;0.80;;;10.30;99.90;;;;;;5110915;28;20287;-81
2023/04/13 09:07:45;;;;;;;2.15;0.77;;;10.40;99.90;;;;;;5111227;28;20296;-79
2023/04/13 09:10:15;;;;;;;4.23;0.87;;;10.60;99.90;;;;;;5110589;28;20217;-75
2023/04/13 09:12:43;;;;;;;0.90;0.60;;;10.80;99.90;;;;;;5109754;28;20232;-77
2023/04/13 09:15:14;;;;;;;1.40;0.50;;;10.80;99.90;;;;;;5111114;28;20205;-79
2023/04/13 09:17:42;;;;;;;1.87;0.50;;;10.90;99.90;;;;;;5110406;28;20200;-80
2023/04/13 09:20:13;;;;;;;1.35;0.50;;;11.30;99.90;;;;;;5111110;28;20261;-72
2023/04/13 09:22:41;;;;;;;0.50;0.50;;;11.50;99.90;;;;;;5109994;28;20228;-76
2023/04/13 09:25:20;;;;;;;0.40;0.40;;;11.30;99.90;;;;;;5109008;28;20201;-78
2023/04/13 09:27:48;;;;;;;0.47;0.40;;;10.90;99.90;;;;;;5110800;28;20229;-76
2023/04/13 09:30:19;;;;;;;0.57;0.30;;;10.60;99.90;;;;;;5110546;28;20720;-77
2023/04/13 09:32:47;;;;;;;0.65;0.50;;;11.10;99.90;;;;;;5110510;28;20589;-78
2023/04/13 09:35:14;;;;;;;0.85;0.52;;;11.30;99.90;;;;;;5110857;28;20291;-79
2023/04/13 09:37:42;;;;;;;0.35;0.25;;;12.20;99.90;;;;;;5108820;28;20205;-76
2023/04/13 09:40:10;;;;;;;0.60;0.40;;;12.10;99.90;;;;;;5110240;28;20640;-72
2023/04/13 09:42:38;;;;;;;0.45;0.43;;;11.90;99.90;;;;;;5112400;28;20585;-72
2023/04/13 09:45:08;;;;;;;1.42;0.38;;;11.80;99.90;;;;;;5114709;27;20338;-71
2023/04/13 09:47:37;;;;;;;0.38;0.30;;;12.00;99.90;;;;;;5118429;27;20224;-74
2023/04/13 09:50:04;;;;;;;1.45;0.30;;;12.10;99.90;;;;;;5122040;27;20239;-74
2023/04/13 09:52:32;;;;;;;2.42;0.47;;;12.30;99.90;;;;;;5114035;28;20201;-74
2023/04/13 09:54:59;;;;;;;0.90;0.50;;;12.60;99.90;;;;;;5114103;28;20215;-72
2023/04/13 09:57:26;;;;;;;0.60;0.43;;;12.20;99.90;;;;;;5113714;28;20205;-72
2023/04/13 09:59:54;;;;;;;4.47;0.60;;;12.60;99.90;;;;;;5114758;28;20240;-73
2023/04/13 10:02:22;;;;;;;0.55;0.40;;;13.10;99.90;;;;;;5114287;28;20285;-76
2023/04/13 10:04:50;;;;;;;1.58;0.43;;;13.30;99.90;;;;;;5113733;28;20201;-80
2023/04/13 10:07:17;;;;;;;0.40;0.40;;;12.90;99.90;;;;;;5114133;28;20353;-74
2023/04/13 10:09:44;;;;;;;0.88;0.65;;;13.30;99.90;;;;;;5113682;28;20669;-75
2023/04/13 10:12:12;;;;;;;0.30;0.30;;;14.80;99.90;;;;;;5113966;28;20648;-79
2023/04/13 10:14:43;;;;;;;2.90;0.45;;;13.40;99.90;;;;;;5113584;28;20240;-72
2023/04/13 10:17:23;;;;;;;0.45;0.45;;;12.70;99.90;;;;;;5113797;28;20242;-74
2023/04/13 10:19:54;;;;;;;0.90;0.60;;;12.60;99.90;;;;;;5114181;28;20242;-76
2023/04/13 10:22:22;;;;;;;0.93;0.38;;;13.30;99.90;;;;;;5114080;28;20201;-79
2023/04/13 10:24:50;;;;;;;0.60;0.32;;;12.80;99.90;;;;;;5113595;28;20798;-76
2023/04/13 10:27:20;;;;;;;0.98;0.32;;;12.30;99.90;;;;;;5113476;27;20287;-78
2023/04/13 10:29:48;;;;;;;0.30;0.30;;;12.10;99.90;;;;;;5113132;28;20213;-77
2023/04/13 10:32:22;;;;;;;0.30;0.30;;;12.40;99.90;;;;;;5113438;28;20590;-79
2023/04/13 10:34:51;;;;;;;0.73;0.73;;;12.70;99.90;;;;;;5112318;28;20250;-86
2023/04/13 10:37:20;;;;;;;1.15;0.43;;;12.50;99.90;;;;;;5113873;28;20567;-78
2023/04/13 10:39:47;;;;;;;1.58;0.50;;;12.10;99.90;;;;;;5113395;28;20581;-80
2023/04/13 10:42:14;;;;;;;0.32;0.32;;;11.80;99.90;;;;;;5115624;28;20235;-84
2023/04/13 10:44:43;;;;;;;0.40;0.40;;;11.40;99.90;;;;;;5115150;28;20233;-83
2023/04/13 10:47:10;;;;;;;0.60;0.55;;;11.20;99.90;;;;;;5113254;28;20240;-81
2023/04/13 10:49:38;;;;;;;3.13;0.43;;;11.00;99.90;;;;;;5113801;28;20216;-84
2023/04/13 10:52:06;;;;;;;2.22;1.33;;;11.40;99.90;;;;;;5113961;28;20213;-83
2023/04/13 10:54:35;;;;;;;1.20;0.82;;;11.70;99.90;;;;;;5112455;28;20304;-83
2023/04/13 10:57:05;;;;;;;0.40;0.40;;;11.70;99.90;;;;;;5113393;28;20215;-83
2023/04/13 10:59:43;;;;;;;0.30;0.30;;;11.70;99.90;;;;;;5113205;28;20656;-86
2023/04/13 11:02:13;;;;;;;0.28;0.20;;;11.60;99.90;;;;;;5113219;28;20655;-87
2023/04/13 11:04:41;;;;;;;0.98;0.40;;;11.40;99.90;;;;;;5113613;28;20290;-84
2023/04/13 11:07:13;;;;;;;0.65;0.45;;;11.40;99.90;;;;;;5113919;28;20207;-86
2023/04/13 11:09:40;;;;;;;0.75;0.32;;;11.50;99.90;;;;;;5113481;28;20201;-85
2023/04/13 11:12:08;;;;;;;2.92;0.98;;;11.60;99.90;;;;;;5113328;28;20266;-84
2023/04/13 11:14:37;;;;;;;0.50;0.20;;;11.50;99.90;;;;;;5113888;27;20212;-81
2023/04/13 11:17:06;;;;;;;0.50;0.40;;;11.40;99.90;;;;;;5110837;27;20625;-74
2023/04/13 11:19:32;;;;;;;0.40;0.40;;;11.70;99.90;;;;;;5111200;27;20205;-74
2023/04/13 11:22:00;;;;;;;0.50;0.50;;;11.90;99.90;;;;;;5112303;28;20236;-75
2023/04/13 11:24:32;;;;;;;0.63;0.63;;;12.00;99.90;;;;;;5111635;28;20236;-79
2023/04/13 11:26:59;;;;;;;0.40;0.40;;;12.20;99.90;;;;;;5113553;27;20210;-74
2023/04/13 11:29:26;;;;;;;0.45;0.45;;;12.30;99.90;;;;;;5132503;27;20667;-76
2023/04/13 11:31:53;;;;;;;0.45;0.45;;;12.60;99.90;;;;;;5133149;27;20207;-77
2023/04/13 11:34:27;;;;;;;0.75;0.30;;;12.50;99.90;;;;;;5121465;27;20240;-76
2023/04/13 11:37:04;;;;;;;2.15;0.30;;;12.50;99.90;;;;;;5112811;28;20201;-74
2023/04/13 11:39:35;;;;;;;0.28;0.28;;;12.70;99.90;;;;;;5111742;28;20201;-75
2023/04/13 11:42:05;;;;;;;0.50;0.40;;;13.00;99.90;;;;;;5111974;28;20667;-80
2023/04/13 11:44:34;;;;;;;0.47;0.47;;;13.20;99.90;;;;;;5111109;28;22257;-75
2023/04/13 11:47:02;;;;;;;0.43;0.43;;;13.20;99.90;;;;;;5111907;28;20212;-77
2023/04/13 11:49:30;;;;;;;2.22;1.48;;;13.30;99.90;;;;;;5111768;28;20733;-75
2023/04/13 11:51:57;;;;;;;0.95;0.40;;;13.40;99.90;;;;;;5112073;28;20212;-73
2023/04/13 11:54:25;;;;;;;1.17;0.60;;;13.40;99.90;;;;;;5112390;28;20680;-75
2023/04/13 11:56:54;;;;;;;0.32;0.28;;;13.30;99.90;;;;;;5111942;27;20239;-75
2023/04/13 11:59:23;;;;;;;2.28;1.02;;;13.00;99.90;;;;;;5111229;28;20200;-73
2023/04/13 12:01:51;;;;;;;0.50;0.50;;;12.80;99.90;;;;;;5112189;28;20205;-75
2023/04/13 12:04:18;;;;;;;1.95;0.50;;;13.00;99.90;;;;;;5116092;27;20280;-74
2023/04/13 12:06:46;;;;;;;1.13;0.30;;;13.20;99.90;;;;;;5120040;27;20232;-75
2023/04/13 12:09:14;;;;;;;0.80;0.60;;;13.10;99.90;;;;;;5117199;27;20213;-74
2023/04/13 12:11:42;;;;;;;0.73;0.60;;;12.90;99.90;;;;;;5111296;28;20212;-73
2023/04/13 12:14:21;;;;;;;1.55;0.57;;;12.30;99.90;;;;;;5111518;28;20236;-74
2023/04/13 12:16:49;;;;;;;2.15;0.52;;;11.50;99.90;;;;;;5111267;28;20675;-76
2023/04/13 12:19:22;;;;;;;1.92;0.57;;;10.50;99.90;;;;;;5111440;28;20215;-74
2023/04/13 12:21:54;;;;;;;1.13;0.60;;;9.80;99.90;;;;;;5112471;28;20201;-74
2023/04/13 12:24:31;;;;;;;1.13;0.50;;;9.50;99.90;;;;;;5132309;27;20236;-75
2023/04/13 12:27:01;;;;;;;1.05;0.57;;;9.30;99.90;;;;;;5132028;27;20218;-77
2023/04/13 12:29:30;;;;;;;1.10;0.68;;;8.90;99.90;;;;;;5131663;27;20208;-76
2023/04/13 12:32:00;;;;;;;1.70;0.47;;;8.80;99.90;;;;;;5118073;27;20208;-73
2023/04/13 12:34:27;;;;;;;2.37;0.70;;;8.50;99.90;;;;;;5110875;28;20216;-72
2023/04/13 12:36:56;;;;;;;1.87;1.37;;;8.40;99.90;;;;;;5111707;28;20252;-73
2023/04/13 12:39:23;;;;;;;1.17;0.80;;;8.50;99.90;;;;;;5110176;28;20287;-74
2023/04/13 12:41:50;;;;;;;3.30;0.70;;;8.40;99.90;;;;;;5108530;28;20240;-75
2023/04/13 12:44:17;;;;;;;2.27;1.43;;;8.30;99.90;;;;;;5110664;28;20271;-74
2023/04/13 12:46:46;;;;;;;0.60;0.43;;;8.50;99.90;;;;;;5111139;28;20666;-73
2023/04/13 12:49:12;;;;;;;1.10;1.00;;;8.50;99.90;;;;;;5111387;28;20628;-76
2023/04/13 12:51:39;;;;;;;2.80;1.03;;;8.60;99.90;;;;;;5110537;28;20240;-75
2023/04/13 12:54:11;;;;;;;1.73;1.30;;;8.70;99.90;;;;;;5110885;28;20244;-76
2023/04/13 12:56:39;;;;;;;1.53;1.23;;;8.60;99.90;;;;;;5110419;28;20291;-75
2023/04/13 12:59:06;;;;;;;2.30;0.90;;;8.80;99.90;;;;;;5111465;28;20207;-78